sensor_id;sensor_type;location;lat;lon;timestamp;P1;durP1;ratioP1;P2;durP2;ratioP2
49548;SDS011;35450;44.518;7.466;2023-11-21T00:10:15;54.58;;;34.67;;
49548;SDS011;35450;44.518;7.466;2023-11-21T00:13:24;53.95;;;35.15;;
49548;SDS011;35450;44.518;7.466;2023-11-21T00:16:28;54.03;;;33.67;;
49548;SDS011;35450;44.518;7.466;2023-11-21T00:19:33;49.08;;;31.55;;
49548;SDS011;35450;44.518;7.466;2023-11-21T00:22:38;56.10;;;33.42;;
49548;SDS011;35450;44.518;7.466;2023-11-21T00:25:42;58.83;;;32.78;;
49548;SDS011;35450;44.518;7.466;2023-11-21T00:28:45;51.88;;;31.73;;
49548;SDS011;35450;44.518;7.466;2023-11-21T00:31:49;51.10;;;31.48;;
49548;SDS011;35450;44.518;7.466;2023-11-21T00:53:25;55.53;;;34.28;;
49548;SDS011;35450;44.518;7.466;2023-11-21T00:56:33;57.00;;;31.25;;
49548;SDS011;35450;44.518;7.466;2023-11-21T00:59:37;52.80;;;33.50;;
49548;SDS011;35450;44.518;7.466;2023-11-21T01:02:41;57.90;;;33.55;;
49548;SDS011;35450;44.518;7.466;2023-11-21T01:05:46;49.28;;;30.40;;
49548;SDS011;35450;44.518;7.466;2023-11-21T01:08:53;50.90;;;30.80;;
49548;SDS011;35450;44.518;7.466;2023-11-21T01:11:57;47.55;;;29.00;;
49548;SDS011;35450;44.518;7.466;2023-11-21T01:15:02;53.97;;;31.50;;
49548;SDS011;35450;44.518;7.466;2023-11-21T01:18:07;54.05;;;31.40;;
49548;SDS011;35450;44.518;7.466;2023-11-21T01:21:12;53.30;;;31.85;;
49548;SDS011;35450;44.518;7.466;2023-11-21T01:24:15;58.38;;;31.75;;
49548;SDS011;35450;44.518;7.466;2023-11-21T01:27:20;53.97;;;31.70;;
49548;SDS011;35450;44.518;7.466;2023-11-21T01:30:24;52.83;;;30.98;;
49548;SDS011;35450;44.518;7.466;2023-11-21T01:33:29;46.45;;;29.67;;
49548;SDS011;35450;44.518;7.466;2023-11-21T01:36:33;52.83;;;31.63;;
49548;SDS011;35450;44.518;7.466;2023-11-21T01:39:37;49.78;;;29.92;;
49548;SDS011;35450;44.518;7.466;2023-11-21T01:42:42;54.10;;;31.27;;
49548;SDS011;35450;44.518;7.466;2023-11-21T01:45:47;50.50;;;32.22;;
49548;SDS011;35450;44.518;7.466;2023-11-21T01:48:51;59.67;;;34.28;;
49548;SDS011;35450;44.518;7.466;2023-11-21T01:51:57;52.47;;;31.75;;
49548;SDS011;35450;44.518;7.466;2023-11-21T01:55:02;55.70;;;32.75;;
49548;SDS011;35450;44.518;7.466;2023-11-21T01:58:08;45.60;;;30.33;;
49548;SDS011;35450;44.518;7.466;2023-11-21T02:01:13;60.45;;;33.17;;
49548;SDS011;35450;44.518;7.466;2023-11-21T02:04:17;50.50;;;33.40;;
49548;SDS011;35450;44.518;7.466;2023-11-21T02:07:22;55.63;;;33.08;;
49548;SDS011;35450;44.518;7.466;2023-11-21T02:10:27;58.75;;;33.88;;
49548;SDS011;35450;44.518;7.466;2023-11-21T02:13:32;59.95;;;33.03;;
49548;SDS011;35450;44.518;7.466;2023-11-21T02:16:36;59.22;;;34.03;;
49548;SDS011;35450;44.518;7.466;2023-11-21T02:19:41;58.50;;;34.45;;
49548;SDS011;35450;44.518;7.466;2023-11-21T02:22:54;57.08;;;35.20;;
49548;SDS011;35450;44.518;7.466;2023-11-21T02:26:03;60.70;;;32.60;;
49548;SDS011;35450;44.518;7.466;2023-11-21T02:29:07;54.85;;;33.20;;
49548;SDS011;35450;44.518;7.466;2023-11-21T02:32:14;49.50;;;30.75;;
49548;SDS011;35450;44.518;7.466;2023-11-21T02:35:20;50.13;;;30.27;;
49548;SDS011;35450;44.518;7.466;2023-11-21T02:38:24;59.50;;;33.40;;
49548;SDS011;35450;44.518;7.466;2023-11-21T02:41:28;72.03;;;35.55;;
49548;SDS011;35450;44.518;7.466;2023-11-21T02:44:32;56.95;;;33.30;;
49548;SDS011;35450;44.518;7.466;2023-11-21T02:47:36;60.90;;;33.92;;
49548;SDS011;35450;44.518;7.466;2023-11-21T02:50:40;57.25;;;34.33;;
49548;SDS011;35450;44.518;7.466;2023-11-21T02:53:46;64.40;;;34.42;;
49548;SDS011;35450;44.518;7.466;2023-11-21T02:56:50;56.25;;;33.80;;
49548;SDS011;35450;44.518;7.466;2023-11-21T02:59:54;55.50;;;33.70;;
49548;SDS011;35450;44.518;7.466;2023-11-21T03:02:58;52.15;;;33.67;;
49548;SDS011;35450;44.518;7.466;2023-11-21T03:06:03;63.08;;;34.30;;
49548;SDS011;35450;44.518;7.466;2023-11-21T03:09:07;51.75;;;32.97;;
49548;SDS011;35450;44.518;7.466;2023-11-21T03:12:12;58.67;;;34.25;;
49548;SDS011;35450;44.518;7.466;2023-11-21T03:15:16;57.20;;;33.92;;
49548;SDS011;35450;44.518;7.466;2023-11-21T03:18:20;57.95;;;34.33;;
49548;SDS011;35450;44.518;7.466;2023-11-21T03:21:25;65.75;;;37.58;;
49548;SDS011;35450;44.518;7.466;2023-11-21T03:24:29;67.30;;;36.72;;
49548;SDS011;35450;44.518;7.466;2023-11-21T03:27:33;56.38;;;35.85;;
49548;SDS011;35450;44.518;7.466;2023-11-21T03:30:37;59.80;;;36.30;;
49548;SDS011;35450;44.518;7.466;2023-11-21T03:33:41;65.38;;;35.03;;
49548;SDS011;35450;44.518;7.466;2023-11-21T03:36:45;63.95;;;37.15;;
49548;SDS011;35450;44.518;7.466;2023-11-21T03:39:50;69.38;;;38.22;;
49548;SDS011;35450;44.518;7.466;2023-11-21T03:42:54;64.90;;;38.33;;
49548;SDS011;35450;44.518;7.466;2023-11-21T03:45:58;74.13;;;38.95;;
49548;SDS011;35450;44.518;7.466;2023-11-21T03:49:02;66.30;;;37.58;;
49548;SDS011;35450;44.518;7.466;2023-11-21T03:52:07;67.47;;;36.80;;
49548;SDS011;35450;44.518;7.466;2023-11-21T03:55:11;65.72;;;34.75;;
49548;SDS011;35450;44.518;7.466;2023-11-21T03:58:18;60.30;;;33.92;;
49548;SDS011;35450;44.518;7.466;2023-11-21T04:01:21;72.63;;;38.72;;
49548;SDS011;35450;44.518;7.466;2023-11-21T04:04:26;60.42;;;36.00;;
49548;SDS011;35450;44.518;7.466;2023-11-21T04:07:30;70.65;;;37.13;;
49548;SDS011;35450;44.518;7.466;2023-11-21T04:10:33;73.93;;;37.35;;
49548;SDS011;35450;44.518;7.466;2023-11-21T04:13:38;60.95;;;35.78;;
49548;SDS011;35450;44.518;7.466;2023-11-21T04:16:43;64.05;;;36.35;;
49548;SDS011;35450;44.518;7.466;2023-11-21T04:19:47;67.38;;;36.22;;
49548;SDS011;35450;44.518;7.466;2023-11-21T04:22:51;65.10;;;36.78;;
49548;SDS011;35450;44.518;7.466;2023-11-21T04:25:55;59.38;;;37.30;;
49548;SDS011;35450;44.518;7.466;2023-11-21T04:29:00;65.95;;;37.72;;
49548;SDS011;35450;44.518;7.466;2023-11-21T04:32:04;58.17;;;34.17;;
49548;SDS011;35450;44.518;7.466;2023-11-21T04:35:08;58.35;;;35.47;;
49548;SDS011;35450;44.518;7.466;2023-11-21T04:38:12;74.47;;;40.90;;
49548;SDS011;35450;44.518;7.466;2023-11-21T04:41:17;65.50;;;39.83;;
49548;SDS011;35450;44.518;7.466;2023-11-21T04:44:21;73.07;;;39.70;;
49548;SDS011;35450;44.518;7.466;2023-11-21T04:47:25;69.55;;;37.63;;
49548;SDS011;35450;44.518;7.466;2023-11-21T04:50:29;70.50;;;41.38;;
49548;SDS011;35450;44.518;7.466;2023-11-21T04:53:33;70.72;;;38.75;;
49548;SDS011;35450;44.518;7.466;2023-11-21T04:56:38;71.03;;;38.90;;
49548;SDS011;35450;44.518;7.466;2023-11-21T04:59:42;68.63;;;40.53;;
49548;SDS011;35450;44.518;7.466;2023-11-21T05:02:46;65.57;;;38.15;;
49548;SDS011;35450;44.518;7.466;2023-11-21T05:05:50;62.78;;;36.83;;
49548;SDS011;35450;44.518;7.466;2023-11-21T05:08:54;60.28;;;36.95;;
49548;SDS011;35450;44.518;7.466;2023-11-21T05:11:58;59.33;;;36.53;;
49548;SDS011;35450;44.518;7.466;2023-11-21T05:15:06;56.33;;;34.92;;
49548;SDS011;35450;44.518;7.466;2023-11-21T05:18:14;46.38;;;31.95;;
49548;SDS011;35450;44.518;7.466;2023-11-21T05:21:18;49.75;;;31.55;;
49548;SDS011;35450;44.518;7.466;2023-11-21T05:24:24;79.65;;;50.72;;
49548;SDS011;35450;44.518;7.466;2023-11-21T05:27:28;53.03;;;33.75;;
49548;SDS011;35450;44.518;7.466;2023-11-21T05:30:33;47.13;;;31.83;;
49548;SDS011;35450;44.518;7.466;2023-11-21T05:33:37;43.55;;;29.75;;
49548;SDS011;35450;44.518;7.466;2023-11-21T05:36:45;52.08;;;31.15;;
49548;SDS011;35450;44.518;7.466;2023-11-21T05:39:49;49.20;;;29.65;;
49548;SDS011;35450;44.518;7.466;2023-11-21T05:42:53;52.70;;;31.23;;
49548;SDS011;35450;44.518;7.466;2023-11-21T05:45:59;50.08;;;31.38;;
49548;SDS011;35450;44.518;7.466;2023-11-21T05:49:03;49.08;;;29.55;;
49548;SDS011;35450;44.518;7.466;2023-11-21T05:52:07;46.33;;;29.15;;
49548;SDS011;35450;44.518;7.466;2023-11-21T05:55:11;41.38;;;26.90;;
49548;SDS011;35450;44.518;7.466;2023-11-21T05:58:16;43.28;;;27.30;;
49548;SDS011;35450;44.518;7.466;2023-11-21T06:01:20;46.20;;;29.70;;
49548;SDS011;35450;44.518;7.466;2023-11-21T06:04:24;50.83;;;31.85;;
49548;SDS011;35450;44.518;7.466;2023-11-21T06:07:28;44.83;;;29.52;;
49548;SDS011;35450;44.518;7.466;2023-11-21T06:10:32;40.90;;;28.63;;
49548;SDS011;35450;44.518;7.466;2023-11-21T06:13:38;41.30;;;27.65;;
49548;SDS011;35450;44.518;7.466;2023-11-21T06:16:41;46.58;;;27.58;;
49548;SDS011;35450;44.518;7.466;2023-11-21T06:19:45;46.40;;;28.63;;
49548;SDS011;35450;44.518;7.466;2023-11-21T06:22:50;49.10;;;32.15;;
49548;SDS011;35450;44.518;7.466;2023-11-21T06:25:55;41.33;;;29.10;;
49548;SDS011;35450;44.518;7.466;2023-11-21T06:28:59;43.67;;;29.30;;
49548;SDS011;35450;44.518;7.466;2023-11-21T06:32:05;46.15;;;29.02;;
49548;SDS011;35450;44.518;7.466;2023-11-21T06:35:09;50.13;;;28.15;;
49548;SDS011;35450;44.518;7.466;2023-11-21T06:38:13;44.47;;;27.02;;
49548;SDS011;35450;44.518;7.466;2023-11-21T06:41:17;43.10;;;27.30;;
49548;SDS011;35450;44.518;7.466;2023-11-21T06:44:21;51.55;;;31.30;;
49548;SDS011;35450;44.518;7.466;2023-11-21T06:47:26;48.53;;;28.90;;
49548;SDS011;35450;44.518;7.466;2023-11-21T06:50:33;49.45;;;28.67;;
49548;SDS011;35450;44.518;7.466;2023-11-21T06:53:37;47.90;;;30.75;;
49548;SDS011;35450;44.518;7.466;2023-11-21T06:56:41;57.00;;;33.90;;
49548;SDS011;35450;44.518;7.466;2023-11-21T06:59:45;63.25;;;32.55;;
49548;SDS011;35450;44.518;7.466;2023-11-21T07:02:49;49.00;;;29.50;;
49548;SDS011;35450;44.518;7.466;2023-11-21T07:05:53;48.85;;;31.98;;
49548;SDS011;35450;44.518;7.466;2023-11-21T07:08:57;72.00;;;46.45;;
49548;SDS011;35450;44.518;7.466;2023-11-21T07:12:02;62.92;;;42.90;;
49548;SDS011;35450;44.518;7.466;2023-11-21T07:15:07;55.05;;;34.67;;
49548;SDS011;35450;44.518;7.466;2023-11-21T07:18:12;53.15;;;32.95;;
49548;SDS011;35450;44.518;7.466;2023-11-21T07:21:17;54.95;;;34.70;;
49548;SDS011;35450;44.518;7.466;2023-11-21T07:24:21;65.22;;;42.25;;
49548;SDS011;35450;44.518;7.466;2023-11-21T07:27:28;58.03;;;33.80;;
49548;SDS011;35450;44.518;7.466;2023-11-21T07:30:32;53.30;;;32.20;;
49548;SDS011;35450;44.518;7.466;2023-11-21T07:33:37;51.17;;;32.83;;
49548;SDS011;35450;44.518;7.466;2023-11-21T07:36:41;52.78;;;32.03;;
49548;SDS011;35450;44.518;7.466;2023-11-21T07:39:45;57.55;;;29.95;;
49548;SDS011;35450;44.518;7.466;2023-11-21T07:42:50;49.35;;;29.58;;
49548;SDS011;35450;44.518;7.466;2023-11-21T07:45:54;47.08;;;27.52;;
49548;SDS011;35450;44.518;7.466;2023-11-21T07:48:58;47.28;;;29.30;;
49548;SDS011;35450;44.518;7.466;2023-11-21T07:52:02;48.38;;;27.63;;
49548;SDS011;35450;44.518;7.466;2023-11-21T07:55:06;52.13;;;30.85;;
49548;SDS011;35450;44.518;7.466;2023-11-21T07:58:11;67.80;;;37.40;;
49548;SDS011;35450;44.518;7.466;2023-11-21T08:01:16;53.72;;;31.15;;
49548;SDS011;35450;44.518;7.466;2023-11-21T08:04:21;51.95;;;29.38;;
49548;SDS011;35450;44.518;7.466;2023-11-21T08:07:25;48.42;;;29.13;;
49548;SDS011;35450;44.518;7.466;2023-11-21T08:10:29;54.63;;;29.48;;
49548;SDS011;35450;44.518;7.466;2023-11-21T08:13:33;50.85;;;29.55;;
49548;SDS011;35450;44.518;7.466;2023-11-21T08:16:38;53.38;;;31.00;;
49548;SDS011;35450;44.518;7.466;2023-11-21T08:19:42;57.47;;;31.85;;
49548;SDS011;35450;44.518;7.466;2023-11-21T08:22:46;56.65;;;31.75;;
49548;SDS011;35450;44.518;7.466;2023-11-21T08:25:52;55.08;;;30.23;;
49548;SDS011;35450;44.518;7.466;2023-11-21T08:28:57;47.50;;;29.10;;
49548;SDS011;35450;44.518;7.466;2023-11-21T08:32:01;50.60;;;28.70;;
49548;SDS011;35450;44.518;7.466;2023-11-21T08:35:07;55.75;;;31.15;;
49548;SDS011;35450;44.518;7.466;2023-11-21T08:38:12;50.10;;;31.08;;
49548;SDS011;35450;44.518;7.466;2023-11-21T08:41:16;49.15;;;30.55;;
49548;SDS011;35450;44.518;7.466;2023-11-21T08:44:19;48.38;;;29.95;;
49548;SDS011;35450;44.518;7.466;2023-11-21T08:47:24;52.28;;;29.70;;
49548;SDS011;35450;44.518;7.466;2023-11-21T08:50:30;57.50;;;29.00;;
49548;SDS011;35450;44.518;7.466;2023-11-21T08:53:34;46.97;;;27.30;;
49548;SDS011;35450;44.518;7.466;2023-11-21T08:56:38;46.30;;;26.55;;
49548;SDS011;35450;44.518;7.466;2023-11-21T08:59:41;42.25;;;27.63;;
49548;SDS011;35450;44.518;7.466;2023-11-21T09:02:45;49.10;;;30.02;;
49548;SDS011;35450;44.518;7.466;2023-11-21T09:05:50;52.10;;;31.25;;
49548;SDS011;35450;44.518;7.466;2023-11-21T09:08:55;53.92;;;31.17;;
49548;SDS011;35450;44.518;7.466;2023-11-21T09:11:59;49.03;;;30.70;;
49548;SDS011;35450;44.518;7.466;2023-11-21T09:15:05;51.42;;;31.83;;
49548;SDS011;35450;44.518;7.466;2023-11-21T09:18:10;54.22;;;31.80;;
49548;SDS011;35450;44.518;7.466;2023-11-21T09:21:14;66.43;;;30.15;;
49548;SDS011;35450;44.518;7.466;2023-11-21T09:24:18;56.05;;;31.50;;
49548;SDS011;35450;44.518;7.466;2023-11-21T09:27:22;46.40;;;29.52;;
49548;SDS011;35450;44.518;7.466;2023-11-21T09:30:27;41.72;;;26.02;;
49548;SDS011;35450;44.518;7.466;2023-11-21T09:33:31;44.58;;;25.98;;
49548;SDS011;35450;44.518;7.466;2023-11-21T09:36:35;43.35;;;25.45;;
49548;SDS011;35450;44.518;7.466;2023-11-21T09:39:42;40.50;;;24.25;;
49548;SDS011;35450;44.518;7.466;2023-11-21T09:42:54;40.50;;;23.80;;
49548;SDS011;35450;44.518;7.466;2023-11-21T09:46:03;36.58;;;23.05;;
49548;SDS011;35450;44.518;7.466;2023-11-21T09:49:15;39.70;;;24.27;;
49548;SDS011;35450;44.518;7.466;2023-11-21T09:52:30;44.33;;;25.33;;
49548;SDS011;35450;44.518;7.466;2023-11-21T09:55:54;47.47;;;26.13;;
49548;SDS011;35450;44.518;7.466;2023-11-21T09:59:01;46.22;;;29.73;;
49548;SDS011;35450;44.518;7.466;2023-11-21T10:02:09;43.70;;;27.50;;
49548;SDS011;35450;44.518;7.466;2023-11-21T10:05:16;43.45;;;26.67;;
49548;SDS011;35450;44.518;7.466;2023-11-21T10:08:21;39.28;;;25.35;;
49548;SDS011;35450;44.518;7.466;2023-11-21T10:11:27;48.35;;;29.55;;
49548;SDS011;35450;44.518;7.466;2023-11-21T10:14:34;47.40;;;30.88;;
49548;SDS011;35450;44.518;7.466;2023-11-21T10:17:40;45.13;;;29.85;;
49548;SDS011;35450;44.518;7.466;2023-11-21T10:20:48;45.28;;;29.05;;
49548;SDS011;35450;44.518;7.466;2023-11-21T10:23:56;52.80;;;29.55;;
49548;SDS011;35450;44.518;7.466;2023-11-21T10:27:00;46.33;;;28.33;;
49548;SDS011;35450;44.518;7.466;2023-11-21T10:30:09;48.22;;;28.65;;
49548;SDS011;35450;44.518;7.466;2023-11-21T10:33:17;44.17;;;29.77;;
49548;SDS011;35450;44.518;7.466;2023-11-21T10:36:30;56.83;;;30.73;;
49548;SDS011;35450;44.518;7.466;2023-11-21T10:39:34;45.80;;;30.85;;
49548;SDS011;35450;44.518;7.466;2023-11-21T10:42:39;47.92;;;31.25;;
49548;SDS011;35450;44.518;7.466;2023-11-21T10:45:43;46.25;;;27.85;;
49548;SDS011;35450;44.518;7.466;2023-11-21T10:48:51;44.10;;;28.52;;
49548;SDS011;35450;44.518;7.466;2023-11-21T10:51:57;40.67;;;26.23;;
49548;SDS011;35450;44.518;7.466;2023-11-21T10:55:02;46.83;;;28.30;;
49548;SDS011;35450;44.518;7.466;2023-11-21T10:58:19;44.72;;;26.80;;
49548;SDS011;35450;44.518;7.466;2023-11-21T11:01:23;44.58;;;29.13;;
49548;SDS011;35450;44.518;7.466;2023-11-21T11:04:33;56.58;;;35.33;;
49548;SDS011;35450;44.518;7.466;2023-11-21T11:07:41;50.78;;;29.08;;
49548;SDS011;35450;44.518;7.466;2023-11-21T11:10:50;43.22;;;28.95;;
49548;SDS011;35450;44.518;7.466;2023-11-21T11:13:54;48.20;;;31.83;;
49548;SDS011;35450;44.518;7.466;2023-11-21T11:17:00;46.30;;;29.73;;
49548;SDS011;35450;44.518;7.466;2023-11-21T11:20:05;46.88;;;29.92;;
49548;SDS011;35450;44.518;7.466;2023-11-21T11:23:19;49.35;;;29.42;;
49548;SDS011;35450;44.518;7.466;2023-11-21T11:26:56;39.92;;;26.02;;
49548;SDS011;35450;44.518;7.466;2023-11-21T11:30:38;39.78;;;25.42;;
49548;SDS011;35450;44.518;7.466;2023-11-21T11:34:18;38.13;;;25.17;;
49548;SDS011;35450;44.518;7.466;2023-11-21T11:37:35;41.17;;;26.85;;
49548;SDS011;35450;44.518;7.466;2023-11-21T11:40:39;40.20;;;27.30;;
49548;SDS011;35450;44.518;7.466;2023-11-21T11:43:45;44.90;;;27.35;;
49548;SDS011;35450;44.518;7.466;2023-11-21T11:46:49;44.05;;;27.90;;
49548;SDS011;35450;44.518;7.466;2023-11-21T11:49:57;41.63;;;26.33;;
49548;SDS011;35450;44.518;7.466;2023-11-21T11:53:15;45.20;;;26.60;;
49548;SDS011;35450;44.518;7.466;2023-11-21T11:56:29;43.85;;;27.27;;
49548;SDS011;35450;44.518;7.466;2023-11-21T12:03:19;42.92;;;29.10;;
49548;SDS011;35450;44.518;7.466;2023-11-21T12:06:32;49.15;;;32.05;;
49548;SDS011;35450;44.518;7.466;2023-11-21T12:09:39;52.40;;;32.90;;
49548;SDS011;35450;44.518;7.466;2023-11-21T12:12:50;54.30;;;33.80;;
49548;SDS011;35450;44.518;7.466;2023-11-21T12:15:56;61.08;;;35.08;;
49548;SDS011;35450;44.518;7.466;2023-11-21T12:19:00;55.85;;;35.67;;
49548;SDS011;35450;44.518;7.466;2023-11-21T12:22:04;52.05;;;34.65;;
49548;SDS011;35450;44.518;7.466;2023-11-21T12:25:08;58.42;;;34.40;;
49548;SDS011;35450;44.518;7.466;2023-11-21T12:28:12;50.13;;;32.03;;
49548;SDS011;35450;44.518;7.466;2023-11-21T12:31:17;47.42;;;31.92;;
49548;SDS011;35450;44.518;7.466;2023-11-21T12:34:21;55.63;;;35.28;;
49548;SDS011;35450;44.518;7.466;2023-11-21T12:37:27;48.22;;;32.65;;
49548;SDS011;35450;44.518;7.466;2023-11-21T12:40:31;57.00;;;32.60;;
49548;SDS011;35450;44.518;7.466;2023-11-21T12:43:35;59.10;;;33.60;;
49548;SDS011;35450;44.518;7.466;2023-11-21T12:46:42;48.92;;;33.53;;
49548;SDS011;35450;44.518;7.466;2023-11-21T12:49:48;51.92;;;33.03;;
49548;SDS011;35450;44.518;7.466;2023-11-21T12:52:52;49.83;;;32.55;;
49548;SDS011;35450;44.518;7.466;2023-11-21T12:55:59;46.00;;;31.10;;
49548;SDS011;35450;44.518;7.466;2023-11-21T12:59:04;44.00;;;29.42;;
49548;SDS011;35450;44.518;7.466;2023-11-21T13:02:08;47.97;;;29.88;;
49548;SDS011;35450;44.518;7.466;2023-11-21T13:05:12;48.38;;;31.73;;
49548;SDS011;35450;44.518;7.466;2023-11-21T13:08:25;47.72;;;30.75;;
49548;SDS011;35450;44.518;7.466;2023-11-21T13:11:29;50.25;;;29.33;;
49548;SDS011;35450;44.518;7.466;2023-11-21T13:14:39;46.85;;;29.27;;
49548;SDS011;35450;44.518;7.466;2023-11-21T13:17:44;48.70;;;31.48;;
49548;SDS011;35450;44.518;7.466;2023-11-21T13:20:49;46.95;;;30.63;;
49548;SDS011;35450;44.518;7.466;2023-11-21T13:23:53;52.72;;;30.13;;
49548;SDS011;35450;44.518;7.466;2023-11-21T13:26:58;52.67;;;31.20;;
49548;SDS011;35450;44.518;7.466;2023-11-21T13:30:03;48.65;;;30.75;;
49548;SDS011;35450;44.518;7.466;2023-11-21T13:33:08;49.30;;;31.80;;
49548;SDS011;35450;44.518;7.466;2023-11-21T13:36:13;47.47;;;31.52;;
49548;SDS011;35450;44.518;7.466;2023-11-21T13:39:19;50.22;;;33.22;;
49548;SDS011;35450;44.518;7.466;2023-11-21T13:42:24;50.03;;;32.28;;
49548;SDS011;35450;44.518;7.466;2023-11-21T13:45:31;44.63;;;31.67;;
49548;SDS011;35450;44.518;7.466;2023-11-21T13:48:35;48.17;;;30.58;;
49548;SDS011;35450;44.518;7.466;2023-11-21T13:51:54;47.92;;;32.50;;
49548;SDS011;35450;44.518;7.466;2023-11-21T13:54:58;55.63;;;33.85;;
49548;SDS011;35450;44.518;7.466;2023-11-21T13:58:04;58.45;;;32.85;;
49548;SDS011;35450;44.518;7.466;2023-11-21T14:01:13;57.08;;;33.97;;
49548;SDS011;35450;44.518;7.466;2023-11-21T14:04:36;54.95;;;34.50;;
49548;SDS011;35450;44.518;7.466;2023-11-21T14:07:53;49.05;;;33.53;;
49548;SDS011;35450;44.518;7.466;2023-11-21T14:10:59;57.65;;;37.90;;
49548;SDS011;35450;44.518;7.466;2023-11-21T14:14:03;49.75;;;35.72;;
49548;SDS011;35450;44.518;7.466;2023-11-21T14:17:09;62.05;;;39.08;;
49548;SDS011;35450;44.518;7.466;2023-11-21T14:20:13;65.10;;;39.17;;
49548;SDS011;35450;44.518;7.466;2023-11-21T14:23:19;67.65;;;44.25;;
49548;SDS011;35450;44.518;7.466;2023-11-21T14:26:24;70.20;;;45.90;;
49548;SDS011;35450;44.518;7.466;2023-11-21T14:29:29;67.10;;;45.40;;
49548;SDS011;35450;44.518;7.466;2023-11-21T14:32:34;71.30;;;42.95;;
49548;SDS011;35450;44.518;7.466;2023-11-21T14:35:38;64.32;;;42.35;;
49548;SDS011;35450;44.518;7.466;2023-11-21T14:38:43;61.83;;;43.53;;
49548;SDS011;35450;44.518;7.466;2023-11-21T14:41:47;62.03;;;44.15;;
49548;SDS011;35450;44.518;7.466;2023-11-21T14:44:51;71.18;;;48.60;;
49548;SDS011;35450;44.518;7.466;2023-11-21T14:47:56;71.50;;;48.35;;
49548;SDS011;35450;44.518;7.466;2023-11-21T14:51:20;73.10;;;48.47;;
49548;SDS011;35450;44.518;7.466;2023-11-21T14:54:50;75.68;;;46.53;;
49548;SDS011;35450;44.518;7.466;2023-11-21T14:58:03;70.05;;;44.88;;
49548;SDS011;35450;44.518;7.466;2023-11-21T15:01:07;69.03;;;42.72;;
49548;SDS011;35450;44.518;7.466;2023-11-21T15:04:14;67.68;;;45.58;;
49548;SDS011;35450;44.518;7.466;2023-11-21T15:07:27;63.92;;;44.97;;
49548;SDS011;35450;44.518;7.466;2023-11-21T15:10:33;59.78;;;43.55;;
49548;SDS011;35450;44.518;7.466;2023-11-21T15:13:49;72.07;;;49.28;;
49548;SDS011;35450;44.518;7.466;2023-11-21T15:16:55;72.25;;;49.00;;
49548;SDS011;35450;44.518;7.466;2023-11-21T15:20:03;72.03;;;48.58;;
49548;SDS011;35450;44.518;7.466;2023-11-21T15:23:09;68.50;;;46.65;;
49548;SDS011;35450;44.518;7.466;2023-11-21T15:26:16;68.93;;;47.65;;
49548;SDS011;35450;44.518;7.466;2023-11-21T15:29:20;83.32;;;50.60;;
49548;SDS011;35450;44.518;7.466;2023-11-21T15:32:25;67.90;;;48.35;;
49548;SDS011;35450;44.518;7.466;2023-11-21T15:35:29;77.97;;;51.17;;
49548;SDS011;35450;44.518;7.466;2023-11-21T15:38:35;76.90;;;54.35;;
49548;SDS011;35450;44.518;7.466;2023-11-21T15:41:41;78.07;;;51.13;;
49548;SDS011;35450;44.518;7.466;2023-11-21T15:44:45;70.45;;;48.92;;
49548;SDS011;35450;44.518;7.466;2023-11-21T15:47:49;67.07;;;48.42;;
49548;SDS011;35450;44.518;7.466;2023-11-21T15:50:53;67.38;;;47.00;;
49548;SDS011;35450;44.518;7.466;2023-11-21T15:54:01;66.50;;;48.00;;
49548;SDS011;35450;44.518;7.466;2023-11-21T15:57:05;73.35;;;48.60;;
49548;SDS011;35450;44.518;7.466;2023-11-21T16:00:11;73.43;;;48.70;;
49548;SDS011;35450;44.518;7.466;2023-11-21T16:03:19;70.15;;;50.47;;
49548;SDS011;35450;44.518;7.466;2023-11-21T16:06:25;82.20;;;51.00;;
49548;SDS011;35450;44.518;7.466;2023-11-21T16:09:31;77.85;;;53.15;;
49548;SDS011;35450;44.518;7.466;2023-11-21T16:12:36;74.82;;;52.13;;
49548;SDS011;35450;44.518;7.466;2023-11-21T16:15:44;79.78;;;52.65;;
49548;SDS011;35450;44.518;7.466;2023-11-21T16:18:48;81.32;;;52.45;;
49548;SDS011;35450;44.518;7.466;2023-11-21T16:21:51;80.15;;;49.60;;
49548;SDS011;35450;44.518;7.466;2023-11-21T16:24:56;78.47;;;53.00;;
49548;SDS011;35450;44.518;7.466;2023-11-21T16:28:00;84.30;;;57.58;;
49548;SDS011;35450;44.518;7.466;2023-11-21T16:31:07;86.10;;;57.45;;
49548;SDS011;35450;44.518;7.466;2023-11-21T16:34:13;80.45;;;51.95;;
49548;SDS011;35450;44.518;7.466;2023-11-21T16:37:18;98.10;;;54.88;;
49548;SDS011;35450;44.518;7.466;2023-11-21T16:40:22;78.97;;;54.40;;
49548;SDS011;35450;44.518;7.466;2023-11-21T16:43:26;91.93;;;58.25;;
49548;SDS011;35450;44.518;7.466;2023-11-21T16:46:30;77.93;;;53.28;;
49548;SDS011;35450;44.518;7.466;2023-11-21T16:49:34;73.65;;;51.40;;
49548;SDS011;35450;44.518;7.466;2023-11-21T16:52:40;104.60;;;56.70;;
49548;SDS011;35450;44.518;7.466;2023-11-21T16:55:45;81.25;;;56.22;;
49548;SDS011;35450;44.518;7.466;2023-11-21T16:58:49;78.20;;;53.30;;
49548;SDS011;35450;44.518;7.466;2023-11-21T17:01:53;85.93;;;58.25;;
49548;SDS011;35450;44.518;7.466;2023-11-21T17:04:58;85.65;;;54.40;;
49548;SDS011;35450;44.518;7.466;2023-11-21T17:08:02;94.20;;;63.08;;
49548;SDS011;35450;44.518;7.466;2023-11-21T17:11:06;81.47;;;55.92;;
49548;SDS011;35450;44.518;7.466;2023-11-21T17:14:17;79.53;;;50.72;;
49548;SDS011;35450;44.518;7.466;2023-11-21T17:17:21;80.07;;;51.08;;
49548;SDS011;35450;44.518;7.466;2023-11-21T17:20:25;76.10;;;49.25;;
49548;SDS011;35450;44.518;7.466;2023-11-21T17:23:30;78.75;;;52.13;;
49548;SDS011;35450;44.518;7.466;2023-11-21T17:26:34;150.00;;;97.90;;
49548;SDS011;35450;44.518;7.466;2023-11-21T17:29:38;96.45;;;63.05;;
49548;SDS011;35450;44.518;7.466;2023-11-21T17:32:43;75.88;;;51.38;;
49548;SDS011;35450;44.518;7.466;2023-11-21T17:35:47;83.10;;;55.08;;
49548;SDS011;35450;44.518;7.466;2023-11-21T17:38:52;95.93;;;63.63;;
49548;SDS011;35450;44.518;7.466;2023-11-21T17:41:57;100.45;;;64.65;;
49548;SDS011;35450;44.518;7.466;2023-11-21T17:45:01;93.38;;;60.13;;
49548;SDS011;35450;44.518;7.466;2023-11-21T17:48:06;90.00;;;55.88;;
49548;SDS011;35450;44.518;7.466;2023-11-21T17:51:10;95.10;;;62.40;;
49548;SDS011;35450;44.518;7.466;2023-11-21T17:54:14;94.88;;;61.17;;
49548;SDS011;35450;44.518;7.466;2023-11-21T17:57:19;100.60;;;57.13;;
49548;SDS011;35450;44.518;7.466;2023-11-21T18:00:23;86.55;;;56.78;;
49548;SDS011;35450;44.518;7.466;2023-11-21T18:03:29;79.40;;;55.55;;
49548;SDS011;35450;44.518;7.466;2023-11-21T18:06:33;87.80;;;54.60;;
49548;SDS011;35450;44.518;7.466;2023-11-21T18:09:37;83.88;;;55.40;;
49548;SDS011;35450;44.518;7.466;2023-11-21T18:12:43;81.07;;;55.08;;
49548;SDS011;35450;44.518;7.466;2023-11-21T18:15:47;95.60;;;58.30;;
49548;SDS011;35450;44.518;7.466;2023-11-21T18:18:51;89.50;;;57.03;;
49548;SDS011;35450;44.518;7.466;2023-11-21T18:21:55;93.43;;;57.95;;
49548;SDS011;35450;44.518;7.466;2023-11-21T18:24:59;80.78;;;52.63;;
49548;SDS011;35450;44.518;7.466;2023-11-21T18:28:03;72.93;;;50.83;;
49548;SDS011;35450;44.518;7.466;2023-11-21T18:31:07;72.03;;;52.45;;
49548;SDS011;35450;44.518;7.466;2023-11-21T18:34:11;83.85;;;54.67;;
49548;SDS011;35450;44.518;7.466;2023-11-21T18:37:15;92.25;;;58.03;;
